sensor_id;sensor_type;location;lat;lon;timestamp;P1;durP1;ratioP1;P2;durP2;ratioP2
15110;SDS011;7656;51.954;7.998;2023-05-02T00:04:09;14.37;;;10.87;;
15110;SDS011;7656;51.954;7.998;2023-05-02T00:08:30;13.33;;;11.17;;
15110;SDS011;7656;51.954;7.998;2023-05-02T00:12:53;15.67;;;11.63;;
15110;SDS011;7656;51.954;7.998;2023-05-02T00:17:17;17.13;;;11.90;;
15110;SDS011;7656;51.954;7.998;2023-05-02T00:21:39;16.13;;;11.97;;
15110;SDS011;7656;51.954;7.998;2023-05-02T00:26:00;16.73;;;12.40;;
15110;SDS011;7656;51.954;7.998;2023-05-02T00:30:21;17.40;;;12.57;;
15110;SDS011;7656;51.954;7.998;2023-05-02T00:34:42;18.47;;;12.90;;
15110;SDS011;7656;51.954;7.998;2023-05-02T00:39:03;19.27;;;13.13;;
15110;SDS011;7656;51.954;7.998;2023-05-02T00:43:24;20.90;;;14.00;;
15110;SDS011;7656;51.954;7.998;2023-05-02T00:47:50;23.30;;;13.57;;
15110;SDS011;7656;51.954;7.998;2023-05-02T00:52:11;20.80;;;14.03;;
15110;SDS011;7656;51.954;7.998;2023-05-02T00:56:32;23.93;;;15.97;;
15110;SDS011;7656;51.954;7.998;2023-05-02T01:01:10;24.23;;;15.03;;
15110;SDS011;7656;51.954;7.998;2023-05-02T01:11:04;24.23;;;15.17;;
15110;SDS011;7656;51.954;7.998;2023-05-02T01:15:37;20.80;;;15.03;;
15110;SDS011;7656;51.954;7.998;2023-05-02T01:20:01;22.27;;;15.27;;
15110;SDS011;7656;51.954;7.998;2023-05-02T01:24:31;22.33;;;14.30;;
15110;SDS011;7656;51.954;7.998;2023-05-02T01:29:03;22.40;;;14.30;;
15110;SDS011;7656;51.954;7.998;2023-05-02T01:33:27;24.20;;;15.00;;
15110;SDS011;7656;51.954;7.998;2023-05-02T01:37:51;20.27;;;13.43;;
15110;SDS011;7656;51.954;7.998;2023-05-02T01:42:14;22.97;;;13.33;;
15110;SDS011;7656;51.954;7.998;2023-05-02T01:46:39;21.43;;;13.57;;
15110;SDS011;7656;51.954;7.998;2023-05-02T01:51:03;19.87;;;13.30;;
15110;SDS011;7656;51.954;7.998;2023-05-02T01:55:26;21.53;;;13.50;;
15110;SDS011;7656;51.954;7.998;2023-05-02T01:59:48;21.60;;;12.70;;
15110;SDS011;7656;51.954;7.998;2023-05-02T02:04:10;20.63;;;13.13;;
15110;SDS011;7656;51.954;7.998;2023-05-02T02:08:34;21.47;;;12.23;;
15110;SDS011;7656;51.954;7.998;2023-05-02T02:13:00;18.70;;;12.00;;
15110;SDS011;7656;51.954;7.998;2023-05-02T02:17:41;21.77;;;13.47;;
15110;SDS011;7656;51.954;7.998;2023-05-02T02:22:06;22.50;;;13.20;;
15110;SDS011;7656;51.954;7.998;2023-05-02T02:26:29;18.10;;;11.93;;
15110;SDS011;7656;51.954;7.998;2023-05-02T02:30:50;21.67;;;12.87;;
15110;SDS011;7656;51.954;7.998;2023-05-02T02:35:11;19.77;;;12.40;;
15110;SDS011;7656;51.954;7.998;2023-05-02T02:39:34;21.83;;;13.23;;
15110;SDS011;7656;51.954;7.998;2023-05-02T02:44:27;19.40;;;11.50;;
15110;SDS011;7656;51.954;7.998;2023-05-02T02:49:26;19.10;;;12.00;;
15110;SDS011;7656;51.954;7.998;2023-05-02T03:03:47;21.27;;;13.00;;
15110;SDS011;7656;51.954;7.998;2023-05-02T03:08:10;18.70;;;12.23;;
15110;SDS011;7656;51.954;7.998;2023-05-02T03:12:34;22.13;;;13.13;;
15110;SDS011;7656;51.954;7.998;2023-05-02T03:16:57;20.93;;;12.03;;
15110;SDS011;7656;51.954;7.998;2023-05-02T03:21:18;19.67;;;12.73;;
15110;SDS011;7656;51.954;7.998;2023-05-02T03:25:40;18.40;;;11.90;;
15110;SDS011;7656;51.954;7.998;2023-05-02T03:30:05;15.60;;;11.27;;
15110;SDS011;7656;51.954;7.998;2023-05-02T03:34:27;17.07;;;11.03;;
15110;SDS011;7656;51.954;7.998;2023-05-02T03:38:49;20.00;;;11.77;;
15110;SDS011;7656;51.954;7.998;2023-05-02T03:43:10;17.93;;;10.70;;
15110;SDS011;7656;51.954;7.998;2023-05-02T03:47:32;16.77;;;10.87;;
15110;SDS011;7656;51.954;7.998;2023-05-02T03:51:53;19.43;;;11.60;;
15110;SDS011;7656;51.954;7.998;2023-05-02T03:56:20;19.57;;;11.30;;
15110;SDS011;7656;51.954;7.998;2023-05-02T04:00:49;17.57;;;10.43;;
15110;SDS011;7656;51.954;7.998;2023-05-02T04:05:13;18.87;;;10.87;;
15110;SDS011;7656;51.954;7.998;2023-05-02T04:09:34;14.83;;;10.10;;
15110;SDS011;7656;51.954;7.998;2023-05-02T04:14:01;15.53;;;10.87;;
15110;SDS011;7656;51.954;7.998;2023-05-02T04:18:22;13.97;;;9.97;;
15110;SDS011;7656;51.954;7.998;2023-05-02T04:22:45;18.87;;;9.73;;
15110;SDS011;7656;51.954;7.998;2023-05-02T04:27:08;16.63;;;9.73;;
15110;SDS011;7656;51.954;7.998;2023-05-02T04:31:30;17.50;;;10.00;;
15110;SDS011;7656;51.954;7.998;2023-05-02T04:35:52;13.50;;;9.37;;
15110;SDS011;7656;51.954;7.998;2023-05-02T04:40:16;12.90;;;7.83;;
15110;SDS011;7656;51.954;7.998;2023-05-02T04:44:40;10.87;;;7.90;;
15110;SDS011;7656;51.954;7.998;2023-05-02T04:49:01;12.43;;;7.60;;
15110;SDS011;7656;51.954;7.998;2023-05-02T04:53:24;11.43;;;6.03;;
15110;SDS011;7656;51.954;7.998;2023-05-02T04:57:45;10.10;;;6.13;;
15110;SDS011;7656;51.954;7.998;2023-05-02T05:02:09;7.00;;;5.20;;
15110;SDS011;7656;51.954;7.998;2023-05-02T05:06:32;5.27;;;3.77;;
15110;SDS011;7656;51.954;7.998;2023-05-02T05:10:54;3.20;;;2.80;;
15110;SDS011;7656;51.954;7.998;2023-05-02T05:15:16;2.87;;;2.20;;
15110;SDS011;7656;51.954;7.998;2023-05-02T05:19:45;4.13;;;2.53;;
15110;SDS011;7656;51.954;7.998;2023-05-02T05:24:06;3.40;;;2.40;;
15110;SDS011;7656;51.954;7.998;2023-05-02T05:28:28;2.43;;;2.23;;
15110;SDS011;7656;51.954;7.998;2023-05-02T05:32:49;3.10;;;2.10;;
15110;SDS011;7656;51.954;7.998;2023-05-02T05:37:10;2.30;;;2.10;;
15110;SDS011;7656;51.954;7.998;2023-05-02T05:41:32;2.33;;;1.87;;
15110;SDS011;7656;51.954;7.998;2023-05-02T05:45:58;5.20;;;2.07;;
15110;SDS011;7656;51.954;7.998;2023-05-02T05:50:20;3.40;;;2.33;;
15110;SDS011;7656;51.954;7.998;2023-05-02T05:54:41;2.73;;;2.53;;
15110;SDS011;7656;51.954;7.998;2023-05-02T05:59:02;2.43;;;2.00;;
15110;SDS011;7656;51.954;7.998;2023-05-02T06:03:23;3.60;;;2.93;;
15110;SDS011;7656;51.954;7.998;2023-05-02T06:07:45;3.67;;;2.87;;
15110;SDS011;7656;51.954;7.998;2023-05-02T06:12:06;4.40;;;2.77;;
15110;SDS011;7656;51.954;7.998;2023-05-02T06:16:28;4.00;;;2.87;;
15110;SDS011;7656;51.954;7.998;2023-05-02T06:20:49;2.90;;;2.60;;
15110;SDS011;7656;51.954;7.998;2023-05-02T06:25:10;3.30;;;3.00;;
15110;SDS011;7656;51.954;7.998;2023-05-02T06:29:31;2.50;;;2.13;;
15110;SDS011;7656;51.954;7.998;2023-05-02T06:33:53;1.57;;;1.47;;
15110;SDS011;7656;51.954;7.998;2023-05-02T06:38:13;1.63;;;0.97;;
15110;SDS011;7656;51.954;7.998;2023-05-02T06:42:37;1.40;;;1.17;;
15110;SDS011;7656;51.954;7.998;2023-05-02T06:46:58;4.63;;;1.57;;
15110;SDS011;7656;51.954;7.998;2023-05-02T06:51:19;1.13;;;1.03;;
15110;SDS011;7656;51.954;7.998;2023-05-02T06:55:43;1.07;;;1.03;;
15110;SDS011;7656;51.954;7.998;2023-05-02T07:00:05;1.07;;;0.90;;
15110;SDS011;7656;51.954;7.998;2023-05-02T07:04:27;1.20;;;1.10;;
15110;SDS011;7656;51.954;7.998;2023-05-02T07:08:48;3.63;;;1.33;;
15110;SDS011;7656;51.954;7.998;2023-05-02T07:13:09;4.30;;;1.97;;
15110;SDS011;7656;51.954;7.998;2023-05-02T07:17:30;4.63;;;2.10;;
15110;SDS011;7656;51.954;7.998;2023-05-02T07:21:52;2.67;;;2.03;;
15110;SDS011;7656;51.954;7.998;2023-05-02T07:26:13;3.80;;;2.10;;
15110;SDS011;7656;51.954;7.998;2023-05-02T07:30:34;9.77;;;2.77;;
15110;SDS011;7656;51.954;7.998;2023-05-02T07:34:55;5.50;;;2.43;;
15110;SDS011;7656;51.954;7.998;2023-05-02T07:39:16;5.40;;;2.53;;
15110;SDS011;7656;51.954;7.998;2023-05-02T07:43:37;11.07;;;3.77;;
15110;SDS011;7656;51.954;7.998;2023-05-02T07:47:58;17.03;;;8.63;;
15110;SDS011;7656;51.954;7.998;2023-05-02T07:52:20;10.53;;;2.90;;
15110;SDS011;7656;51.954;7.998;2023-05-02T07:56:41;7.73;;;2.37;;
15110;SDS011;7656;51.954;7.998;2023-05-02T08:01:03;9.43;;;2.50;;
15110;SDS011;7656;51.954;7.998;2023-05-02T08:05:24;5.47;;;2.73;;
15110;SDS011;7656;51.954;7.998;2023-05-02T08:09:46;4.93;;;2.73;;
15110;SDS011;7656;51.954;7.998;2023-05-02T08:14:07;4.00;;;2.43;;
15110;SDS011;7656;51.954;7.998;2023-05-02T08:18:28;5.77;;;2.97;;
15110;SDS011;7656;51.954;7.998;2023-05-02T08:22:50;3.67;;;2.70;;
15110;SDS011;7656;51.954;7.998;2023-05-02T08:27:11;5.17;;;2.60;;
15110;SDS011;7656;51.954;7.998;2023-05-02T08:31:32;8.63;;;2.70;;
15110;SDS011;7656;51.954;7.998;2023-05-02T08:35:53;6.60;;;3.10;;
15110;SDS011;7656;51.954;7.998;2023-05-02T08:40:14;5.80;;;2.87;;
15110;SDS011;7656;51.954;7.998;2023-05-02T08:44:37;8.17;;;2.97;;
15110;SDS011;7656;51.954;7.998;2023-05-02T08:48:58;9.77;;;2.83;;
15110;SDS011;7656;51.954;7.998;2023-05-02T08:53:20;9.37;;;3.17;;
15110;SDS011;7656;51.954;7.998;2023-05-02T08:57:43;3.70;;;2.40;;
15110;SDS011;7656;51.954;7.998;2023-05-02T09:02:11;4.73;;;2.47;;
15110;SDS011;7656;51.954;7.998;2023-05-02T09:06:45;6.00;;;2.23;;
15110;SDS011;7656;51.954;7.998;2023-05-02T09:11:07;5.80;;;2.17;;
15110;SDS011;7656;51.954;7.998;2023-05-02T09:15:29;6.10;;;2.30;;
15110;SDS011;7656;51.954;7.998;2023-05-02T09:19:58;6.47;;;2.60;;
15110;SDS011;7656;51.954;7.998;2023-05-02T09:24:21;5.73;;;2.13;;
15110;SDS011;7656;51.954;7.998;2023-05-02T09:28:43;4.10;;;2.00;;
15110;SDS011;7656;51.954;7.998;2023-05-02T09:33:07;4.73;;;2.10;;
15110;SDS011;7656;51.954;7.998;2023-05-02T09:37:34;4.60;;;2.13;;
15110;SDS011;7656;51.954;7.998;2023-05-02T09:41:56;6.70;;;2.37;;
15110;SDS011;7656;51.954;7.998;2023-05-02T09:46:18;9.27;;;2.63;;
15110;SDS011;7656;51.954;7.998;2023-05-02T09:50:39;5.40;;;2.60;;
15110;SDS011;7656;51.954;7.998;2023-05-02T09:55:00;4.60;;;2.30;;
15110;SDS011;7656;51.954;7.998;2023-05-02T09:59:40;3.10;;;1.90;;
15110;SDS011;7656;51.954;7.998;2023-05-02T10:04:12;4.57;;;2.27;;
15110;SDS011;7656;51.954;7.998;2023-05-02T10:08:38;5.43;;;2.93;;
15110;SDS011;7656;51.954;7.998;2023-05-02T10:13:04;8.43;;;2.63;;
15110;SDS011;7656;51.954;7.998;2023-05-02T10:17:29;8.43;;;2.40;;
15110;SDS011;7656;51.954;7.998;2023-05-02T10:21:57;8.77;;;3.80;;
15110;SDS011;7656;51.954;7.998;2023-05-02T10:26:19;9.40;;;4.50;;
15110;SDS011;7656;51.954;7.998;2023-05-02T10:30:43;10.60;;;4.00;;
15110;SDS011;7656;51.954;7.998;2023-05-02T10:35:05;6.30;;;3.37;;
15110;SDS011;7656;51.954;7.998;2023-05-02T10:39:28;4.73;;;1.73;;
15110;SDS011;7656;51.954;7.998;2023-05-02T10:43:49;5.77;;;2.57;;
15110;SDS011;7656;51.954;7.998;2023-05-02T10:48:15;4.67;;;2.97;;
15110;SDS011;7656;51.954;7.998;2023-05-02T10:52:47;9.40;;;3.23;;
15110;SDS011;7656;51.954;7.998;2023-05-02T10:57:08;3.60;;;2.03;;
15110;SDS011;7656;51.954;7.998;2023-05-02T11:01:33;1.97;;;1.87;;
15110;SDS011;7656;51.954;7.998;2023-05-02T11:06:03;5.63;;;2.70;;
15110;SDS011;7656;51.954;7.998;2023-05-02T11:10:29;4.87;;;2.27;;
15110;SDS011;7656;51.954;7.998;2023-05-02T11:14:50;6.73;;;2.43;;
15110;SDS011;7656;51.954;7.998;2023-05-02T11:19:11;5.40;;;3.10;;
15110;SDS011;7656;51.954;7.998;2023-05-02T11:23:32;3.90;;;2.20;;
15110;SDS011;7656;51.954;7.998;2023-05-02T11:27:56;3.30;;;2.17;;
15110;SDS011;7656;51.954;7.998;2023-05-02T11:32:17;3.57;;;2.43;;
15110;SDS011;7656;51.954;7.998;2023-05-02T11:36:38;7.73;;;2.27;;
15110;SDS011;7656;51.954;7.998;2023-05-02T11:40:59;3.10;;;2.50;;
15110;SDS011;7656;51.954;7.998;2023-05-02T11:45:31;8.57;;;2.07;;
15110;SDS011;7656;51.954;7.998;2023-05-02T11:49:56;3.83;;;2.67;;
15110;SDS011;7656;51.954;7.998;2023-05-02T11:54:19;6.30;;;2.87;;
15110;SDS011;7656;51.954;7.998;2023-05-02T11:58:41;8.03;;;2.50;;
15110;SDS011;7656;51.954;7.998;2023-05-02T12:03:03;4.17;;;2.60;;
15110;SDS011;7656;51.954;7.998;2023-05-02T12:12:08;5.17;;;2.30;;
15110;SDS011;7656;51.954;7.998;2023-05-02T12:16:30;5.23;;;2.50;;
15110;SDS011;7656;51.954;7.998;2023-05-02T12:20:51;10.80;;;3.77;;
15110;SDS011;7656;51.954;7.998;2023-05-02T12:25:15;6.57;;;2.93;;
15110;SDS011;7656;51.954;7.998;2023-05-02T12:29:37;6.93;;;2.90;;
15110;SDS011;7656;51.954;7.998;2023-05-02T12:34:00;5.80;;;3.10;;
15110;SDS011;7656;51.954;7.998;2023-05-02T12:38:21;4.17;;;2.53;;
15110;SDS011;7656;51.954;7.998;2023-05-02T12:43:00;6.17;;;2.87;;
15110;SDS011;7656;51.954;7.998;2023-05-02T12:47:24;3.60;;;3.07;;
15110;SDS011;7656;51.954;7.998;2023-05-02T12:51:51;8.37;;;2.70;;
15110;SDS011;7656;51.954;7.998;2023-05-02T12:56:13;6.03;;;2.90;;
15110;SDS011;7656;51.954;7.998;2023-05-02T13:00:35;6.20;;;3.10;;
15110;SDS011;7656;51.954;7.998;2023-05-02T13:04:58;6.03;;;3.13;;
15110;SDS011;7656;51.954;7.998;2023-05-02T13:09:20;4.67;;;2.80;;
15110;SDS011;7656;51.954;7.998;2023-05-02T13:13:41;3.83;;;2.70;;
15110;SDS011;7656;51.954;7.998;2023-05-02T13:18:02;4.60;;;2.70;;
15110;SDS011;7656;51.954;7.998;2023-05-02T13:22:23;6.20;;;3.50;;
15110;SDS011;7656;51.954;7.998;2023-05-02T13:26:45;7.00;;;3.10;;
15110;SDS011;7656;51.954;7.998;2023-05-02T13:31:06;24.67;;;12.47;;
15110;SDS011;7656;51.954;7.998;2023-05-02T13:35:27;9.17;;;5.53;;
15110;SDS011;7656;51.954;7.998;2023-05-02T13:39:48;4.83;;;2.80;;
15110;SDS011;7656;51.954;7.998;2023-05-02T13:44:09;6.80;;;3.40;;
15110;SDS011;7656;51.954;7.998;2023-05-02T13:48:30;6.93;;;3.10;;
15110;SDS011;7656;51.954;7.998;2023-05-02T13:52:51;5.13;;;3.10;;
15110;SDS011;7656;51.954;7.998;2023-05-02T13:57:12;6.97;;;3.00;;
15110;SDS011;7656;51.954;7.998;2023-05-02T14:01:33;6.00;;;3.00;;
15110;SDS011;7656;51.954;7.998;2023-05-02T14:05:55;5.87;;;3.20;;
15110;SDS011;7656;51.954;7.998;2023-05-02T14:10:16;5.57;;;2.73;;
15110;SDS011;7656;51.954;7.998;2023-05-02T14:14:37;5.13;;;3.23;;
15110;SDS011;7656;51.954;7.998;2023-05-02T14:18:58;8.97;;;3.50;;
15110;SDS011;7656;51.954;7.998;2023-05-02T14:23:19;4.80;;;2.90;;
15110;SDS011;7656;51.954;7.998;2023-05-02T14:27:40;5.37;;;3.57;;
15110;SDS011;7656;51.954;7.998;2023-05-02T14:32:01;5.93;;;3.20;;
15110;SDS011;7656;51.954;7.998;2023-05-02T14:36:23;4.60;;;3.43;;
15110;SDS011;7656;51.954;7.998;2023-05-02T14:40:44;6.37;;;3.23;;
15110;SDS011;7656;51.954;7.998;2023-05-02T14:45:06;3.83;;;3.23;;
15110;SDS011;7656;51.954;7.998;2023-05-02T14:49:28;6.00;;;3.23;;
15110;SDS011;7656;51.954;7.998;2023-05-02T14:53:49;7.13;;;3.20;;
15110;SDS011;7656;51.954;7.998;2023-05-02T14:58:10;8.57;;;3.70;;
15110;SDS011;7656;51.954;7.998;2023-05-02T15:02:32;8.03;;;3.47;;
15110;SDS011;7656;51.954;7.998;2023-05-02T15:06:54;5.77;;;3.63;;
15110;SDS011;7656;51.954;7.998;2023-05-02T15:11:15;6.03;;;3.33;;
15110;SDS011;7656;51.954;7.998;2023-05-02T15:15:36;7.60;;;3.50;;
15110;SDS011;7656;51.954;7.998;2023-05-02T15:19:57;5.33;;;3.40;;
15110;SDS011;7656;51.954;7.998;2023-05-02T15:24:19;9.40;;;5.37;;
15110;SDS011;7656;51.954;7.998;2023-05-02T15:28:40;9.20;;;5.10;;
15110;SDS011;7656;51.954;7.998;2023-05-02T15:33:01;4.00;;;3.60;;
15110;SDS011;7656;51.954;7.998;2023-05-02T15:37:22;6.03;;;3.63;;
15110;SDS011;7656;51.954;7.998;2023-05-02T15:41:43;4.67;;;2.70;;
15110;SDS011;7656;51.954;7.998;2023-05-02T15:46:07;5.17;;;3.40;;
15110;SDS011;7656;51.954;7.998;2023-05-02T15:50:28;5.20;;;3.20;;
15110;SDS011;7656;51.954;7.998;2023-05-02T15:54:49;4.80;;;2.73;;
15110;SDS011;7656;51.954;7.998;2023-05-02T15:59:11;3.20;;;2.90;;
15110;SDS011;7656;51.954;7.998;2023-05-02T16:03:32;4.70;;;3.00;;
15110;SDS011;7656;51.954;7.998;2023-05-02T16:07:56;5.40;;;2.63;;
15110;SDS011;7656;51.954;7.998;2023-05-02T16:12:17;2.30;;;2.03;;
15110;SDS011;7656;51.954;7.998;2023-05-02T16:16:38;4.07;;;2.67;;
15110;SDS011;7656;51.954;7.998;2023-05-02T16:20:59;2.20;;;1.93;;
15110;SDS011;7656;51.954;7.998;2023-05-02T16:25:20;3.40;;;2.73;;
15110;SDS011;7656;51.954;7.998;2023-05-02T16:29:42;3.13;;;2.47;;
15110;SDS011;7656;51.954;7.998;2023-05-02T16:34:03;10.43;;;5.17;;
15110;SDS011;7656;51.954;7.998;2023-05-02T16:38:24;4.57;;;2.67;;
15110;SDS011;7656;51.954;7.998;2023-05-02T16:42:45;4.10;;;2.60;;
15110;SDS011;7656;51.954;7.998;2023-05-02T16:47:06;3.33;;;1.97;;
15110;SDS011;7656;51.954;7.998;2023-05-02T16:51:28;3.63;;;2.20;;
15110;SDS011;7656;51.954;7.998;2023-05-02T16:55:51;3.80;;;2.40;;
15110;SDS011;7656;51.954;7.998;2023-05-02T17:00:13;3.03;;;1.93;;
15110;SDS011;7656;51.954;7.998;2023-05-02T17:04:36;2.63;;;2.23;;
15110;SDS011;7656;51.954;7.998;2023-05-02T17:08:57;1.57;;;1.47;;
15110;SDS011;7656;51.954;7.998;2023-05-02T17:13:18;3.73;;;2.30;;
15110;SDS011;7656;51.954;7.998;2023-05-02T17:17:39;2.53;;;1.80;;
15110;SDS011;7656;51.954;7.998;2023-05-02T17:22:01;2.37;;;1.90;;
15110;SDS011;7656;51.954;7.998;2023-05-02T17:26:24;3.93;;;1.50;;
15110;SDS011;7656;51.954;7.998;2023-05-02T17:30:45;3.43;;;2.03;;
15110;SDS011;7656;51.954;7.998;2023-05-02T17:35:07;4.17;;;2.30;;
15110;SDS011;7656;51.954;7.998;2023-05-02T17:39:29;1.90;;;1.80;;
15110;SDS011;7656;51.954;7.998;2023-05-02T17:43:50;3.13;;;1.90;;
15110;SDS011;7656;51.954;7.998;2023-05-02T17:48:11;3.27;;;1.53;;
15110;SDS011;7656;51.954;7.998;2023-05-02T17:52:33;6.97;;;2.13;;
15110;SDS011;7656;51.954;7.998;2023-05-02T17:56:55;2.27;;;1.60;;
15110;SDS011;7656;51.954;7.998;2023-05-02T18:01:16;1.80;;;1.70;;
15110;SDS011;7656;51.954;7.998;2023-05-02T18:05:38;4.27;;;1.77;;
15110;SDS011;7656;51.954;7.998;2023-05-02T18:09:59;2.50;;;1.97;;
15110;SDS011;7656;51.954;7.998;2023-05-02T18:14:23;3.03;;;1.73;;
15110;SDS011;7656;51.954;7.998;2023-05-02T18:18:44;3.27;;;1.87;;
15110;SDS011;7656;51.954;7.998;2023-05-02T18:23:05;3.80;;;1.90;;
15110;SDS011;7656;51.954;7.998;2023-05-02T18:27:27;1.57;;;1.47;;
15110;SDS011;7656;51.954;7.998;2023-05-02T18:31:48;1.60;;;1.50;;
15110;SDS011;7656;51.954;7.998;2023-05-02T18:36:12;5.57;;;1.60;;
15110;SDS011;7656;51.954;7.998;2023-05-02T18:40:35;4.30;;;1.63;;
15110;SDS011;7656;51.954;7.998;2023-05-02T18:44:56;2.57;;;1.40;;
15110;SDS011;7656;51.954;7.998;2023-05-02T18:49:17;4.43;;;1.50;;
15110;SDS011;7656;51.954;7.998;2023-05-02T18:53:38;2.70;;;1.50;;
15110;SDS011;7656;51.954;7.998;2023-05-02T18:57:59;1.40;;;1.30;;
15110;SDS011;7656;51.954;7.998;2023-05-02T19:02:20;2.13;;;1.43;;
15110;SDS011;7656;51.954;7.998;2023-05-02T19:06:42;3.73;;;1.50;;
15110;SDS011;7656;51.954;7.998;2023-05-02T19:11:03;2.17;;;1.30;;
15110;SDS011;7656;51.954;7.998;2023-05-02T19:15:24;1.90;;;1.50;;
15110;SDS011;7656;51.954;7.998;2023-05-02T19:19:46;2.00;;;1.50;;
15110;SDS011;7656;51.954;7.998;2023-05-02T19:24:10;2.07;;;1.30;;
15110;SDS011;7656;51.954;7.998;2023-05-02T19:28:31;3.73;;;1.77;;
15110;SDS011;7656;51.954;7.998;2023-05-02T19:32:52;2.87;;;1.60;;
15110;SDS011;7656;51.954;7.998;2023-05-02T19:37:13;1.63;;;1.30;;
15110;SDS011;7656;51.954;7.998;2023-05-02T19:41:35;1.97;;;1.13;;
15110;SDS011;7656;51.954;7.998;2023-05-02T19:45:56;1.60;;;1.50;;
15110;SDS011;7656;51.954;7.998;2023-05-02T19:50:18;1.53;;;1.43;;
15110;SDS011;7656;51.954;7.998;2023-05-02T19:54:39;3.97;;;1.57;;
15110;SDS011;7656;51.954;7.998;2023-05-02T19:59:00;1.50;;;1.40;;
15110;SDS011;7656;51.954;7.998;2023-05-02T20:03:21;2.13;;;1.30;;
15110;SDS011;7656;51.954;7.998;2023-05-02T20:07:43;2.23;;;1.60;;
15110;SDS011;7656;51.954;7.998;2023-05-02T20:12:06;21.93;;;9.87;;
15110;SDS011;7656;51.954;7.998;2023-05-02T20:16:27;2.77;;;1.70;;
15110;SDS011;7656;51.954;7.998;2023-05-02T20:20:50;1.97;;;1.37;;
15110;SDS011;7656;51.954;7.998;2023-05-02T20:25:11;1.83;;;1.57;;
15110;SDS011;7656;51.954;7.998;2023-05-02T20:29:34;2.30;;;1.53;;
15110;SDS011;7656;51.954;7.998;2023-05-02T20:33:55;1.37;;;1.23;;
15110;SDS011;7656;51.954;7.998;2023-05-02T20:38:16;2.57;;;1.23;;
15110;SDS011;7656;51.954;7.998;2023-05-02T20:42:38;2.07;;;1.43;;
15110;SDS011;7656;51.954;7.998;2023-05-02T20:47:01;3.03;;;1.60;;
15110;SDS011;7656;51.954;7.998;2023-05-02T20:51:23;1.63;;;1.50;;
15110;SDS011;7656;51.954;7.998;2023-05-02T20:55:49;1.70;;;1.60;;
15110;SDS011;7656;51.954;7.998;2023-05-02T21:00:10;4.27;;;2.07;;
15110;SDS011;7656;51.954;7.998;2023-05-02T21:04:33;3.37;;;1.60;;
15110;SDS011;7656;51.954;7.998;2023-05-02T21:08:54;3.40;;;1.20;;
15110;SDS011;7656;51.954;7.998;2023-05-02T21:13:16;1.30;;;1.10;;
15110;SDS011;7656;51.954;7.998;2023-05-02T21:17:37;1.50;;;1.20;;
15110;SDS011;7656;51.954;7.998;2023-05-02T21:22:00;2.57;;;1.90;;
15110;SDS011;7656;51.954;7.998;2023-05-02T21:26:21;1.17;;;1.17;;
15110;SDS011;7656;51.954;7.998;2023-05-02T21:30:42;2.07;;;1.40;;
15110;SDS011;7656;51.954;7.998;2023-05-02T21:35:03;2.60;;;1.67;;
15110;SDS011;7656;51.954;7.998;2023-05-02T21:39:25;4.67;;;1.50;;
15110;SDS011;7656;51.954;7.998;2023-05-02T21:43:46;2.53;;;1.67;;
15110;SDS011;7656;51.954;7.998;2023-05-02T21:48:07;2.37;;;1.53;;
15110;SDS011;7656;51.954;7.998;2023-05-02T21:52:28;1.50;;;1.40;;
15110;SDS011;7656;51.954;7.998;2023-05-02T21:56:51;2.27;;;1.40;;
15110;SDS011;7656;51.954;7.998;2023-05-02T22:01:13;2.97;;;1.43;;
15110;SDS011;7656;51.954;7.998;2023-05-02T22:05:38;3.80;;;1.40;;
15110;SDS011;7656;51.954;7.998;2023-05-02T22:10:00;3.37;;;1.57;;
15110;SDS011;7656;51.954;7.998;2023-05-02T22:14:22;2.57;;;1.67;;
15110;SDS011;7656;51.954;7.998;2023-05-02T22:18:43;3.00;;;1.50;;
15110;SDS011;7656;51.954;7.998;2023-05-02T22:23:04;2.57;;;1.83;;
15110;SDS011;7656;51.954;7.998;2023-05-02T22:27:26;3.67;;;1.80;;
15110;SDS011;7656;51.954;7.998;2023-05-02T22:31:47;2.93;;;2.10;;
15110;SDS011;7656;51.954;7.998;2023-05-02T22:36:09;2.03;;;1.90;;
15110;SDS011;7656;51.954;7.998;2023-05-02T22:40:31;2.93;;;2.03;;
15110;SDS011;7656;51.954;7.998;2023-05-02T22:44:52;2.47;;;2.00;;
15110;SDS011;7656;51.954;7.998;2023-05-02T22:49:13;3.67;;;2.10;;
15110;SDS011;7656;51.954;7.998;2023-05-02T22:53:35;2.67;;;2.03;;
15110;SDS011;7656;51.954;7.998;2023-05-02T22:57:56;2.23;;;1.60;;
15110;SDS011;7656;51.954;7.998;2023-05-02T23:02:17;2.53;;;1.77;;
15110;SDS011;7656;51.954;7.998;2023-05-02T23:06:38;4.00;;;1.90;;
15110;SDS011;7656;51.954;7.998;2023-05-02T23:11:00;1.60;;;1.50;;
15110;SDS011;7656;51.954;7.998;2023-05-02T23:15:21;1.90;;;1.80;;
15110;SDS011;7656;51.954;7.998;2023-05-02T23:19:42;2.87;;;1.70;;
15110;SDS011;7656;51.954;7.998;2023-05-02T23:24:03;2.30;;;1.80;;
15110;SDS011;7656;51.954;7.998;2023-05-02T23:28:24;2.10;;;1.87;;
15110;SDS011;7656;51.954;7.998;2023-05-02T23:32:45;2.90;;;1.77;;
15110;SDS011;7656;51.954;7.998;2023-05-02T23:37:07;1.80;;;1.60;;
15110;SDS011;7656;51.954;7.998;2023-05-02T23:41:28;3.03;;;1.60;;
15110;SDS011;7656;51.954;7.998;2023-05-02T23:45:50;3.03;;;1.77;;
15110;SDS011;7656;51.954;7.998;2023-05-02T23:50:11;1.93;;;1.70;;
15110;SDS011;7656;51.954;7.998;2023-05-02T23:54:32;1.97;;;1.80;;
15110;SDS011;7656;51.954;7.998;2023-05-02T23:58:54;4.60;;;1.73;;
